Aeroporto :
LOGIN :

Iscrizione | Disclaimer

   EN    FR    IT 

 










Sommario :    VFR   VFR Marginale   IFR   IFR Intensivo   IFR Molto Intensivo
Visibilità : 
Base nubi : 
>= 8 km
>= 3000ft
5 / 8 km
1000 / 3000 ft
1500m / 5 km
500 / 1000 ft
800 / 1500m
200 / 500 ft
< 800m
< 200 ft
Simboli :   Temporali  Nebbia  Neve Forte  Precipitazioni Forti  Vento > 20 kt
SIGMETs :   Varie  Temporali  Ghiacco  Turbolenza  Onda orograficha  Ceneri Vulcaniche






- Altitudine del aeroporto : 353 ft
- Codice IATA : LIN


LIML - Milano Linate

ULTIMO METAR :
  • 191850Z 35005KT 9999 FEW090 04/02 Q1032 NOSIG

METARs OBSOLETI :
  • 191820Z 36003KT CAVOK 03/02 Q1032 NOSIG
  • 191750Z 35005KT CAVOK 04/02 Q1031 NOSIG
  • 191720Z 35003KT 9999 FEW060 04/02 Q1031 NOSIG
  • 191650Z VRB02KT 9999 FEW060 04/03 Q1031 NOSIG
  • 191620Z VRB01KT 9999 FEW060 05/03 Q1030 NOSIG
  • 191550Z 18003KT 9999 FEW060 06/03 Q1030 NOSIG

TAF TAF LIML
Valido dal 19 a 18 ore il 20 a 18 ore UTC


191700Z 1918/2018 36005KT 8000 BKN070



MetMap, La meteo Aeronautica in un colpo d'occhio ! - Copyright ORBIFLY Dicembre 2007 - Disclaimer

ORBIFLY MET'MAP TEAM :

Programmazione e sviluppo : Alexandra Zaïnal
Concezione : Baudouin d'Aumeries
Aiuto per la programmazione : Marc-Olivier Méhu
Supporto tecnico e logistico : Manuel Goepfert
Aiuto per la traduzione : Arnaldo La Scala

Contatto : metmap@orbifly.com




FONTI E CREDITI :

   NOAA